Time;durP1;ratioP1;P1;durP2;ratioP2;P2;SDS_P1;SDS_P2;PMS_P1;PMS_P2;Temp;Humidity;BMP_temperature;BMP_pressure;BME280_temperature;BME280_humidity;BME280_pressure;Samples;Min_cycle;Max_cycle;Signal;HPM_P1;HPM_P2
2022/01/06 00:00:39;;;;;;;0.00;0.00;;;;;;;8.47;76.61;98236.59;5010086;28;20576;-78
2022/01/06 00:03:04;;;;;;;0.00;0.00;;;;;;;8.43;77.21;98229.41;5009968;28;20057;-75
2022/01/06 00:05:29;;;;;;;0.43;0.43;;;;;;;8.46;76.94;98234.19;5009652;28;20030;-78
2022/01/06 00:07:55;;;;;;;0.00;0.00;;;;;;;8.51;77.53;98234.16;5009843;28;20137;-84
2022/01/06 00:10:21;;;;;;;0.00;0.00;;;;;;;8.53;77.63;98239.22;5009846;28;20129;-77
2022/01/06 00:13:05;;;;;;;0.00;0.00;;;;;;;8.54;78.52;98230.94;5009929;28;20034;-81
2022/01/06 00:15:54;;;;;;;0.30;0.30;;;;;;;8.59;77.85;98235.41;5009737;28;20409;-83
2022/01/06 00:18:40;;;;;;;0.00;0.00;;;;;;;8.61;79.58;98230.59;5009834;28;20030;-82
2022/01/06 00:23:49;;;;;;;0.05;0.05;;;;;;;8.74;80.56;98237.94;5010761;28;20099;-81
2022/01/06 00:26:14;;;;;;;0.00;0.00;;;;;;;8.79;81.32;98237.09;5009783;28;20049;-80
2022/01/06 00:28:40;;;;;;;0.05;0.05;;;;;;;8.83;82.31;98238.09;5009764;28;20501;-79
2022/01/06 00:31:06;;;;;;;0.20;0.20;;;;;;;8.91;82.76;98234.00;5009474;28;20033;-80
2022/01/06 00:33:33;;;;;;;0.32;0.32;;;;;;;8.99;83.20;98237.94;5009968;28;20573;-78
2022/01/06 00:35:59;;;;;;;0.00;0.00;;;;;;;9.04;83.01;98243.19;5006444;28;20034;-80
2022/01/06 00:38:26;;;;;;;0.00;0.00;;;;;;;9.10;83.19;98247.38;4990427;28;20478;-81
2022/01/06 00:40:52;;;;;;;0.00;0.00;;;;;;;9.15;83.88;98249.19;4990242;28;20121;-78
2022/01/06 00:43:18;;;;;;;0.10;0.10;;;;;;;9.20;84.16;98254.47;4990272;28;20027;-79
2022/01/06 00:45:43;;;;;;;0.20;0.20;;;;;;;9.22;83.74;98244.31;5002456;28;20501;-79
2022/01/06 00:48:10;;;;;;;0.20;0.20;;;;;;;9.27;83.96;98246.91;5009688;28;20022;-79
2022/01/06 00:50:38;;;;;;;0.00;0.00;;;;;;;9.30;83.78;98246.31;5009953;28;20056;-81
2022/01/06 00:53:04;;;;;;;;;;;;;;;9.37;84.08;98252.09;5009956;28;20176;-80
2022/01/06 00:55:31;;;;;;;0.00;0.00;;;;;;;9.39;84.00;98255.28;5009596;28;20414;-76
2022/01/06 00:57:57;;;;;;;0.20;0.20;;;;;;;9.37;83.65;98232.63;5009301;28;20142;-78
2022/01/06 01:00:27;;;;;;;0.00;0.00;;;;;;;9.47;83.25;98234.38;5009568;28;20233;-77
2022/01/06 01:02:52;;;;;;;0.00;0.00;;;;;;;9.51;83.41;98228.16;5009378;28;20033;-77
2022/01/06 01:05:18;;;;;;;0.10;0.10;;;;;;;9.52;83.62;98229.75;5009354;28;20030;-76
2022/01/06 01:07:43;;;;;;;0.00;0.00;;;;;;;9.52;83.15;98229.75;5009599;28;20030;-76
2022/01/06 01:10:09;;;;;;;0.00;0.00;;;;;;;9.52;82.28;98227.09;5010621;28;20396;-78
2022/01/06 01:12:34;;;;;;;0.00;0.00;;;;;;;9.53;79.60;98239.34;5009159;28;20034;-75
2022/01/06 01:15:06;;;;;;;0.00;0.00;;;;;;;9.39;78.23;98225.91;5009232;28;20116;-74
2022/01/06 01:17:33;;;;;;;0.00;0.00;;;;;;;9.44;77.67;98241.06;5009422;28;20029;-74
2022/01/06 01:19:59;;;;;;;0.00;0.00;;;;;;;9.37;77.54;98241.41;5010696;28;20046;-74
2022/01/06 01:22:24;;;;;;;0.00;0.00;;;;;;;9.23;77.33;98222.66;5012554;28;20018;-76
2022/01/06 01:24:49;;;;;;;0.00;0.00;;;;;;;9.22;78.05;98239.75;5012126;28;20096;-75
2022/01/06 01:27:19;;;;;;;0.00;0.00;;;;;;;9.21;78.03;98240.81;5012418;28;20038;-75
2022/01/06 01:29:57;;;;;;;0.00;0.00;;;;;;;9.12;77.87;98239.91;5012642;28;20456;-76
2022/01/06 01:32:32;;;;;;;0.10;0.10;;;;;;;9.10;77.76;98258.06;5012717;28;20040;-75
2022/01/06 01:35:01;;;;;;;0.00;0.00;;;;;;;9.02;77.31;98254.16;5012337;28;20065;-75
2022/01/06 01:37:27;;;;;;;;;;;;;;;8.97;76.69;98248.84;5013098;28;20033;-75
2022/01/06 01:39:52;;;;;;;0.57;0.57;;;;;;;8.81;75.65;98249.03;5011960;28;19909;-73
2022/01/06 01:42:18;;;;;;;0.08;0.08;;;;;;;8.65;75.78;98242.28;5013861;28;20029;-74
2022/01/06 01:44:45;;;;;;;0.40;0.40;;;;;;;8.61;76.14;98247.38;5013204;28;20402;-74
2022/01/06 01:47:14;;;;;;;0.00;0.00;;;;;;;8.53;76.24;98241.88;5011961;28;20033;-73
2022/01/06 01:49:54;;;;;;;0.15;0.15;;;;;;;8.39;76.02;98236.41;5012473;28;20033;-74
2022/01/06 01:52:20;;;;;;;0.00;0.00;;;;;;;8.33;76.24;98244.41;5013761;28;20052;-79
2022/01/06 01:54:45;;;;;;;0.00;0.00;;;;;;;8.26;75.97;98237.84;5012094;28;20485;-76
2022/01/06 01:57:10;;;;;;;0.00;0.00;;;;;;;8.13;75.67;98236.59;5011076;28;20030;-77
2022/01/06 01:59:36;;;;;;;0.00;0.00;;;;;;;8.06;75.65;98233.50;5012316;28;20034;-79
2022/01/06 02:02:01;;;;;;;0.00;0.00;;;;;;;7.96;75.57;98223.72;5011684;28;20475;-76
2022/01/06 02:04:27;;;;;;;0.00;0.00;;;;;;;7.90;75.61;98222.94;5012069;28;20034;-80
2022/01/06 02:06:52;;;;;;;0.32;0.32;;;;;;;7.81;75.62;98212.13;5012073;28;20026;-76
2022/01/06 02:09:18;;;;;;;0.00;0.00;;;;;;;7.73;75.32;98212.69;5011994;28;20124;-76
2022/01/06 02:11:43;;;;;;;0.00;0.00;;;;;;;7.67;75.72;98213.81;5011775;28;20116;-78
2022/01/06 02:14:09;;;;;;;0.00;0.00;;;;;;;7.58;76.04;98221.59;5011843;28;20022;-79
2022/01/06 02:16:34;;;;;;;0.00;0.00;;;;;;;7.47;76.20;98212.06;5011732;28;20026;-79
2022/01/06 02:19:00;;;;;;;0.00;0.00;;;;;;;7.43;75.69;98219.00;5011729;28;20038;-78
2022/01/06 02:21:25;;;;;;;0.00;0.00;;;;;;;7.37;76.35;98208.41;5010990;28;20394;-78
2022/01/06 02:23:51;;;;;;;0.00;0.00;;;;;;;7.25;76.38;98212.47;5011251;28;20034;-80
2022/01/06 02:26:17;;;;;;;0.00;0.00;;;;;;;7.13;76.71;98208.28;5010976;28;20053;-78
2022/01/06 02:28:43;;;;;;;0.10;0.10;;;;;;;7.14;76.83;98217.03;5011662;28;20037;-78
2022/01/06 02:31:09;;;;;;;0.00;0.00;;;;;;;7.06;77.17;98213.09;5010993;28;20117;-75
2022/01/06 02:33:36;;;;;;;0.32;0.28;;;;;;;7.04;77.44;98223.19;5011293;28;20034;-77
2022/01/06 02:36:02;;;;;;;0.13;0.13;;;;;;;7.05;77.63;98222.13;5011186;28;20088;-77
2022/01/06 02:38:28;;;;;;;0.00;0.00;;;;;;;7.03;77.78;98217.09;5012611;28;20033;-81
2022/01/06 02:40:53;;;;;;;0.00;0.00;;;;;;;7.01;78.61;98213.13;5011448;28;20033;-79
2022/01/06 02:43:23;;;;;;;0.55;0.55;;;;;;;7.05;78.81;98217.63;5011169;28;20114;-78
2022/01/06 02:45:48;;;;;;;0.00;0.00;;;;;;;7.07;78.47;98212.03;5008773;28;20066;-79
2022/01/06 02:48:14;;;;;;;0.00;0.00;;;;;;;7.04;78.30;98204.59;5011090;28;20064;-75
2022/01/06 02:50:45;;;;;;;0.00;0.00;;;;;;;7.03;78.09;98205.66;5011440;28;20489;-74
2022/01/06 02:53:12;;;;;;;0.00;0.00;;;;;;;7.04;78.60;98201.94;5011055;28;20088;-74
2022/01/06 02:55:41;;;;;;;0.00;0.00;;;;;;;7.08;78.23;98207.50;5011794;28;20030;-76
2022/01/06 02:58:06;;;;;;;0.00;0.00;;;;;;;7.07;78.22;98213.88;5010521;28;20026;-75
2022/01/06 03:00:35;;;;;;;0.00;0.00;;;;;;;7.08;78.37;98213.63;5010933;28;20041;-77
2022/01/06 03:03:00;;;;;;;0.00;0.00;;;;;;;7.00;77.94;98206.22;5010844;28;20033;-74
2022/01/06 03:05:26;;;;;;;0.00;0.00;;;;;;;7.04;79.54;98212.56;5012145;28;20184;-76
2022/01/06 03:07:51;;;;;;;0.20;0.20;;;;;;;7.05;79.30;98217.63;5010976;28;20021;-77
2022/01/06 03:10:17;;;;;;;0.00;0.00;;;;;;;7.06;79.40;98223.72;5010674;28;20029;-79
2022/01/06 03:12:44;;;;;;;0.00;0.00;;;;;;;7.09;79.67;98222.38;5010646;28;20032;-79
2022/01/06 03:15:09;;;;;;;0.00;0.00;;;;;;;7.11;80.40;98221.03;5010435;28;20033;-77
2022/01/06 03:17:36;;;;;;;0.00;0.00;;;;;;;7.16;79.97;98228.19;5010613;28;20089;-76
2022/01/06 03:20:04;;;;;;;0.00;0.00;;;;;;;7.18;79.75;98231.38;5010501;28;20030;-74
2022/01/06 03:22:30;;;;;;;0.00;0.00;;;;;;;7.20;80.56;98242.53;5010609;28;20032;-77
2022/01/06 03:24:55;;;;;;;1.92;1.17;;;;;;;7.21;80.08;98233.47;5012179;28;20034;-76
2022/01/06 03:27:21;;;;;;;1.40;0.75;;;;;;;7.15;79.48;98227.41;5010039;28;20046;-78
2022/01/06 03:29:49;;;;;;;0.00;0.00;;;;;;;7.08;78.85;98223.44;5010325;28;20057;-77
2022/01/06 03:32:15;;;;;;;0.43;0.43;;;;;;;6.98;79.40;98230.41;5011620;28;20064;-76
2022/01/06 03:34:40;;;;;;;0.10;0.10;;;;;;;6.92;79.39;98233.34;5010252;28;20057;-76
2022/01/06 03:37:06;;;;;;;0.80;0.80;;;;;;;6.81;79.33;98230.75;5010051;28;20037;-77
2022/01/06 03:39:32;;;;;;;3.53;2.30;;;;;;;6.82;79.45;98239.50;5010473;28;20018;-78
2022/01/06 03:41:58;;;;;;;6.60;0.80;;;;;;;6.80;79.23;98241.63;5010458;28;20068;-82
2022/01/06 03:44:24;;;;;;;0.00;0.00;;;;;;;6.79;79.67;98240.06;5009526;28;20062;-78
2022/01/06 03:46:50;;;;;;;0.08;0.08;;;;;;;6.72;78.99;98243.75;5010354;28;20069;-76
2022/01/06 03:49:15;;;;;;;0.00;0.00;;;;;;;6.69;78.80;98254.94;5010173;28;20527;-78
2022/01/06 03:51:41;;;;;;;0.00;0.00;;;;;;;6.63;78.04;98247.25;5010302;28;20445;-81
2022/01/06 03:54:06;;;;;;;0.90;0.90;;;;;;;6.58;78.44;98245.41;5011088;28;20565;-77
2022/01/06 03:56:32;;;;;;;0.88;0.88;;;;;;;6.48;79.04;98242.75;5010122;28;20036;-78
2022/01/06 03:58:58;;;;;;;0.00;0.00;;;;;;;6.46;78.95;98245.69;5009880;28;20034;-76
2022/01/06 04:01:24;;;;;;;0.00;0.00;;;;;;;6.46;78.81;98242.22;5009502;28;20033;-76
2022/01/06 04:03:49;;;;;;;0.00;0.00;;;;;;;6.30;78.73;98228.19;5009968;28;20044;-77
2022/01/06 04:06:15;;;;;;;0.45;0.45;;;;;;;6.31;78.87;98235.09;5009529;28;20033;-76
2022/01/06 04:08:41;;;;;;;0.00;0.00;;;;;;;6.29;79.18;98239.88;5010052;28;20533;-76
2022/01/06 04:11:06;;;;;;;0.00;0.00;;;;;;;6.27;79.28;98234.81;5009829;28;20037;-76
2022/01/06 04:13:33;;;;;;;0.00;0.00;;;;;;;6.28;79.10;98239.06;5009613;28;20026;-76
2022/01/06 04:16:01;;;;;;;0.20;0.20;;;;;;;6.27;78.32;98248.09;5009964;28;20037;-75
2022/01/06 04:18:27;;;;;;;0.00;0.00;;;;;;;6.21;78.36;98242.00;5010012;28;20116;-74
2022/01/06 04:20:52;;;;;;;0.00;0.00;;;;;;;6.22;78.54;98251.56;5011083;28;20459;-75
2022/01/06 04:23:18;;;;;;;0.10;0.10;;;;;;;6.18;78.16;98247.84;5009406;28;20125;-75
2022/01/06 04:25:43;;;;;;;0.00;0.00;;;;;;;6.08;78.17;98256.59;5015532;28;20046;-76
2022/01/06 04:28:08;;;;;;;0.00;0.00;;;;;;;6.07;78.23;98262.19;5013034;28;20037;-77
2022/01/06 04:30:34;;;;;;;0.00;0.00;;;;;;;5.99;78.76;98254.75;5013028;28;20018;-78
2022/01/06 04:32:59;;;;;;;0.28;0.28;;;;;;;5.87;79.00;98247.81;5012505;28;20041;-74
2022/01/06 04:35:25;;;;;;;0.00;0.00;;;;;;;5.93;79.51;98254.72;5012627;28;20022;-74
2022/01/06 04:37:50;;;;;;;0.20;0.20;;;;;;;5.92;79.82;98255.78;5012996;28;20072;-74
2022/01/06 04:40:15;;;;;;;0.00;0.00;;;;;;;5.89;80.06;98258.16;5012882;28;20568;-74
2022/01/06 04:42:41;;;;;;;0.17;0.17;;;;;;;5.89;80.08;98264.25;5012659;28;20033;-75
2022/01/06 04:45:07;;;;;;;0.20;0.20;;;;;;;5.83;80.58;98260.00;5029680;28;20464;-74
2022/01/06 04:47:32;;;;;;;0.00;0.00;;;;;;;5.81;81.51;98267.47;5012604;28;20496;-75
2022/01/06 04:49:58;;;;;;;1.00;1.00;;;;;;;5.76;80.66;98264.78;5012691;28;20029;-74
2022/01/06 04:52:23;;;;;;;0.43;0.43;;;;;;;5.81;81.21;98278.06;5029633;28;20481;-76
2022/01/06 04:54:49;;;;;;;0.55;0.55;;;;;;;5.67;80.17;98251.25;5030633;28;20087;-74
2022/01/06 04:57:14;;;;;;;0.00;0.00;;;;;;;5.64;80.26;98256.28;5033682;28;20025;-75
2022/01/06 04:59:40;;;;;;;0.00;0.00;;;;;;;5.58;80.16;98263.44;5015679;28;20098;-79
2022/01/06 05:02:05;;;;;;;0.03;0.03;;;;;;;5.60;80.33;98270.06;5015890;28;20033;-79
2022/01/06 05:04:31;;;;;;;0.10;0.10;;;;;;;5.58;81.14;98269.53;5016592;28;20099;-77
2022/01/06 05:06:56;;;;;;;0.03;0.03;;;;;;;5.62;81.08;98280.41;5016449;28;20448;-75
2022/01/06 05:09:22;;;;;;;0.00;0.00;;;;;;;5.58;80.21;98266.09;5015696;28;20032;-77
2022/01/06 05:11:47;;;;;;;0.63;0.63;;;;;;;5.57;79.81;98269.78;5016302;28;20539;-79
2022/01/06 05:14:13;;;;;;;0.10;0.10;;;;;;;5.56;79.94;98271.63;5015544;28;20022;-79
2022/01/06 05:16:38;;;;;;;0.00;0.00;;;;;;;5.51;79.40;98270.84;5015048;28;20039;-78
2022/01/06 05:19:04;;;;;;;0.00;0.00;;;;;;;5.45;79.57;98264.72;5011636;28;20405;-78
2022/01/06 05:21:31;;;;;;;0.00;0.00;;;;;;;5.43;79.77;98275.59;5015716;28;20017;-79
2022/01/06 05:23:57;;;;;;;0.47;0.30;;;;;;;5.43;79.85;98282.75;5015098;28;20044;-77
2022/01/06 05:26:23;;;;;;;0.03;0.03;;;;;;;5.39;80.18;98277.16;5015635;28;20046;-84
2022/01/06 05:28:49;;;;;;;1.65;0.80;;;;;;;5.36;79.86;98268.94;5017034;28;20057;-89
2022/01/06 05:31:14;;;;;;;0.00;0.00;;;;;;;5.37;79.87;98278.47;5016551;28;20095;-88
2022/01/06 05:33:40;;;;;;;0.00;0.00;;;;;;;5.34;80.45;98279.00;5016473;28;20408;-89
2022/01/06 05:36:06;;;;;;;0.55;0.40;;;;;;;5.35;80.43;98288.56;5016610;28;20060;-90
2022/01/06 05:38:31;;;;;;;0.00;0.00;;;;;;;5.31;80.72;98279.53;5016613;28;20117;-88
2022/01/06 05:40:57;;;;;;;0.00;0.00;;;;;;;5.30;80.67;98281.38;5016461;28;20025;-89
2022/01/06 05:43:23;;;;;;;0.00;0.00;;;;;;;5.30;80.02;98284.03;5015843;28;20037;-89
2022/01/06 05:45:54;;;;;;;0.00;0.00;;;;;;;5.32;79.89;98289.84;5015937;28;20485;-89
2022/01/06 05:48:20;;;;;;;0.00;0.00;;;;;;;5.29;80.51;98296.47;5016082;28;20057;-89
2022/01/06 05:50:48;;;;;;;0.52;0.52;;;;;;;5.29;80.60;98301.78;5016315;28;20080;-89
2022/01/06 05:53:17;;;;;;;0.00;0.00;;;;;;;5.25;80.41;98289.34;5016465;28;20033;-89
2022/01/06 05:55:43;;;;;;;0.00;0.00;;;;;;;5.26;80.43;98299.66;5017293;28;20064;-89
2022/01/06 05:58:09;;;;;;;0.10;0.10;;;;;;;5.23;80.51;98294.88;5016326;28;20064;-89
2022/01/06 06:00:34;;;;;;;0.00;0.00;;;;;;;5.26;80.48;98301.50;5016992;28;20087;-88
2022/01/06 06:03:00;;;;;;;0.32;0.32;;;;;;;5.27;81.42;98303.09;5016380;28;20036;-90
2022/01/06 06:05:25;;;;;;;0.00;0.00;;;;;;;5.31;81.53;98306.03;5015810;28;20048;-90
2022/01/06 06:07:50;;;;;;;0.00;0.00;;;;;;;5.34;82.03;98302.88;5015839;28;20031;-89
2022/01/06 06:10:16;;;;;;;0.00;0.00;;;;;;;5.43;82.39;98311.91;5016255;28;20400;-89
2022/01/06 06:12:41;;;;;;;0.00;0.00;;;;;;;5.53;82.16;98306.66;5015977;28;20491;-89
2022/01/06 06:15:07;;;;;;;0.00;0.00;;;;;;;5.54;82.14;98308.25;5015312;28;20021;-88
2022/01/06 06:17:33;;;;;;;0.00;0.00;;;;;;;5.69;81.90;98325.25;5015981;28;20028;-88
2022/01/06 06:19:58;;;;;;;0.00;0.00;;;;;;;5.80;82.04;98342.81;5016221;28;20028;-88
2022/01/06 06:22:24;;;;;;;0.70;0.70;;;;;;;5.79;81.44;98341.22;5015988;28;20386;-90
2022/01/06 06:24:49;;;;;;;0.00;0.00;;;;;;;5.82;81.64;98345.19;5015867;28;20029;-89
2022/01/06 06:27:15;;;;;;;2.00;0.98;;;;;;;5.81;81.44;98341.75;5015191;28;20045;-88
2022/01/06 06:29:40;;;;;;;2.50;1.15;;;;;;;5.81;81.51;98343.59;5015268;28;20476;-88
2022/01/06 06:32:06;;;;;;;1.10;1.00;;;;;;;5.78;81.24;98339.59;5015154;28;20021;-88
2022/01/06 06:34:32;;;;;;;0.38;0.38;;;;;;;5.75;80.85;98332.19;5015134;28;20116;-88
2022/01/06 06:36:57;;;;;;;0.00;0.00;;;;;;;5.84;81.63;98351.81;5015120;28;20106;-88
2022/01/06 06:39:22;;;;;;;0.52;0.52;;;;;;;5.93;81.64;98355.56;5014798;28;20381;-88
2022/01/06 06:41:48;;;;;;;0.00;0.00;;;;;;;6.03;81.75;98362.78;5014880;28;20412;-88
2022/01/06 06:44:14;;;;;;;0.00;0.00;;;;;;;6.11;81.76;98361.47;4998434;28;20084;-88
2022/01/06 06:46:39;;;;;;;0.13;0.13;;;;;;;6.25;81.54;98370.53;5014751;28;20079;-88
2022/01/06 06:49:04;;;;;;;0.00;0.00;;;;;;;6.34;80.67;98365.47;5014643;28;20032;-89
2022/01/06 06:51:30;;;;;;;0.00;0.00;;;;;;;6.46;79.70;98370.53;5015543;28;20378;-89
2022/01/06 06:53:55;;;;;;;0.05;0.05;;;;;;;6.56;79.67;98378.50;5014594;28;20025;-89
2022/01/06 06:56:21;;;;;;;0.03;0.03;;;;;;;6.66;79.19;98375.03;5014239;28;20727;-89
2022/01/06 06:58:46;;;;;;;0.00;0.00;;;;;;;6.76;78.43;98376.91;5014703;28;20029;-89
2022/01/06 07:01:13;;;;;;;0.00;0.00;;;;;;;6.76;78.34;98368.91;5013886;28;20029;-89
2022/01/06 07:03:39;;;;;;;0.00;0.00;;;;;;;6.91;78.46;98372.63;5015010;28;20068;-88
2022/01/06 07:06:04;;;;;;;0.10;0.10;;;;;;;7.01;77.76;98378.72;5014528;28;20029;-89
2022/01/06 07:08:29;;;;;;;0.20;0.20;;;;;;;7.13;77.71;98385.63;5014832;28;20033;-89
2022/01/06 07:10:55;;;;;;;0.10;0.10;;;;;;;7.19;77.36;98381.91;5014780;28;20032;-88
2022/01/06 07:13:20;;;;;;;0.00;0.00;;;;;;;7.32;77.58;98388.50;5014500;28;20033;-89
2022/01/06 07:15:46;;;;;;;0.00;0.00;;;;;;;7.29;76.57;98359.81;5015100;28;20026;-88
2022/01/06 07:18:12;;;;;;;0.00;0.00;;;;;;;7.47;76.76;98388.47;5013860;28;20025;-89
2022/01/06 07:20:38;;;;;;;0.85;0.85;;;;;;;7.53;76.40;98390.03;5014914;28;20048;-89
2022/01/06 07:23:04;;;;;;;0.00;0.00;;;;;;;7.67;75.83;98395.56;5015158;28;20033;-90
2022/01/06 07:25:29;;;;;;;0.00;0.00;;;;;;;7.74;75.41;98397.94;5015668;28;20022;-89
2022/01/06 07:27:55;;;;;;;0.00;0.00;;;;;;;7.83;75.79;98396.28;5015236;28;20034;-90
2022/01/06 07:30:21;;;;;;;0.00;0.00;;;;;;;7.93;75.57;98389.34;5014866;28;20397;-89
2022/01/06 07:32:49;;;;;;;0.00;0.00;;;;;;;7.97;75.35;98387.69;5015166;28;20040;-89
2022/01/06 07:35:15;;;;;;;0.00;0.00;;;;;;;8.13;75.53;98397.22;5015236;28;20036;-89
2022/01/06 07:37:42;;;;;;;0.10;0.10;;;;;;;8.21;75.46;98392.38;5032766;28;20669;-89
2022/01/06 07:40:09;;;;;;;0.05;0.05;;;;;;;8.30;74.34;98396.03;5014353;28;20030;-89
2022/01/06 07:42:35;;;;;;;0.20;0.20;;;;;;;8.39;74.68;98391.72;5014114;28;20504;-89
2022/01/06 07:45:02;;;;;;;0.00;0.00;;;;;;;8.48;74.25;98392.75;5014150;28;20404;-89
2022/01/06 07:47:29;;;;;;;0.00;0.00;;;;;;;8.51;74.12;98387.91;5014486;28;20033;-88
2022/01/06 07:49:55;;;;;;;0.32;0.32;;;;;;;8.59;74.24;98390.00;5014429;28;20025;-90
2022/01/06 07:52:22;;;;;;;0.00;0.00;;;;;;;8.68;74.26;98391.00;5014449;28;20036;-90
2022/01/06 07:54:48;;;;;;;1.52;1.00;;;;;;;8.72;74.05;98391.25;5014975;28;20112;-88
2022/01/06 07:57:14;;;;;;;0.43;0.30;;;;;;;8.76;74.22;98390.41;5014702;28;20040;-89
2022/01/06 07:59:40;;;;;;;0.40;0.30;;;;;;;8.85;74.57;98397.78;5014254;28;20026;-89
2022/01/06 08:02:05;;;;;;;0.10;0.10;;;;;;;8.91;74.28;98392.13;5014264;28;20627;-89
2022/01/06 08:04:31;;;;;;;0.00;0.00;;;;;;;8.99;73.98;98404.06;5014447;28;20032;-89
2022/01/06 08:06:56;;;;;;;0.08;0.08;;;;;;;8.99;73.91;98395.28;5014331;28;20467;-90
2022/01/06 08:09:22;;;;;;;1.08;1.08;;;;;;;9.02;73.70;98395.50;5014128;28;20033;-89
2022/01/06 08:11:47;;;;;;;1.75;1.65;;;;;;;9.15;73.92;98404.69;5014266;28;20029;-89
2022/01/06 08:14:13;;;;;;;0.52;0.52;;;;;;;9.25;73.29;98411.81;5014108;28;20033;-89
2022/01/06 08:16:38;;;;;;;0.00;0.00;;;;;;;9.31;73.21;98409.88;5014284;28;20472;-89
2022/01/06 08:19:04;;;;;;;0.00;0.00;;;;;;;9.37;73.45;98406.88;5014344;28;20030;-88
2022/01/06 08:21:29;;;;;;;0.20;0.20;;;;;;;9.45;73.23;98400.91;5014240;28;20029;-91
2022/01/06 08:23:55;;;;;;;0.20;0.20;;;;;;;9.51;72.99;98403.53;5014229;28;20025;-91
2022/01/06 08:26:20;;;;;;;0.00;0.00;;;;;;;9.54;72.93;98411.75;5013466;28;20045;-89
2022/01/06 08:28:46;;;;;;;0.25;0.25;;;;;;;9.61;71.99;98416.75;5013872;28;20025;-90
2022/01/06 08:31:13;;;;;;;0.68;0.68;;;;;;;9.66;72.02;98419.38;5016575;28;20033;-88
2022/01/06 08:33:39;;;;;;;0.00;0.00;;;;;;;9.63;71.41;98411.13;5018441;28;20477;-88
2022/01/06 08:36:05;;;;;;;0.22;0.22;;;;;;;9.63;72.23;98409.28;5017795;28;20037;-89
2022/01/06 08:38:30;;;;;;;0.00;0.00;;;;;;;9.63;71.77;98406.59;5018145;28;20025;-91
2022/01/06 08:40:56;;;;;;;1.45;1.35;;;;;;;9.61;71.78;98392.75;5018191;28;20493;-89
2022/01/06 08:43:27;;;;;;;0.20;0.20;;;;;;;9.70;71.82;98415.03;5017855;28;20040;-89
2022/01/06 08:45:56;;;;;;;0.40;0.40;;;;;;;9.69;71.84;98418.00;5018048;28;20036;-90
2022/01/06 08:48:23;;;;;;;0.85;0.85;;;;;;;9.61;71.52;98411.44;5017814;28;20034;-89
2022/01/06 08:50:49;;;;;;;0.20;0.20;;;;;;;9.58;71.96;98412.78;5018712;28;20045;-90
2022/01/06 08:53:15;;;;;;;0.20;0.20;;;;;;;9.55;71.93;98416.03;5017349;28;20048;-89
2022/01/06 08:55:40;;;;;;;0.47;0.47;;;;;;;9.54;72.64;98413.63;5017256;28;20057;-89
2022/01/06 08:58:06;;;;;;;0.28;0.28;;;;;;;9.55;72.72;98410.69;5017417;28;20111;-90
2022/01/06 09:00:32;;;;;;;1.27;1.27;;;;;;;9.54;72.67;98409.09;5017815;28;20444;-89
2022/01/06 09:02:58;;;;;;;0.10;0.10;;;;;;;9.54;72.94;98416.31;5017712;28;20021;-90
2022/01/06 09:05:24;;;;;;;0.00;0.00;;;;;;;9.53;73.23;98406.72;5017614;28;20120;-88
2022/01/06 09:07:50;;;;;;;1.33;1.23;;;;;;;9.50;73.10;98402.75;5018031;28;20064;-89
2022/01/06 09:10:15;;;;;;;0.60;0.60;;;;;;;9.58;72.85;98420.00;5017619;28;20033;-90
2022/01/06 09:12:42;;;;;;;0.57;0.57;;;;;;;9.56;73.31;98406.16;5017644;28;20028;-89
2022/01/06 09:15:09;;;;;;;0.08;0.08;;;;;;;9.64;73.39;98410.06;5017584;28;20401;-89
2022/01/06 09:17:36;;;;;;;0.10;0.10;;;;;;;9.69;73.45;98410.00;5017875;28;20025;-91
2022/01/06 09:20:04;;;;;;;0.65;0.65;;;;;;;9.66;71.34;98399.91;5018086;28;20033;-91
2022/01/06 09:22:30;;;;;;;0.00;0.00;;;;;;;9.63;72.54;98401.28;5018137;28;20025;-89
2022/01/06 09:24:56;;;;;;;0.43;0.43;;;;;;;9.78;71.22;98413.63;5017285;28;20543;-91
2022/01/06 09:27:23;;;;;;;0.10;0.10;;;;;;;9.78;71.71;98410.97;5017087;28;20053;-90
2022/01/06 09:29:50;;;;;;;0.00;0.00;;;;;;;9.84;71.81;98409.81;5017878;28;20044;-91
2022/01/06 09:32:16;;;;;;;0.00;0.00;;;;;;;9.90;71.76;98406.00;5018433;28;20548;-90
2022/01/06 09:34:41;;;;;;;0.38;0.38;;;;;;;9.93;71.02;98397.38;5017533;28;20061;-89
2022/01/06 09:37:07;;;;;;;0.10;0.10;;;;;;;10.04;71.14;98397.28;5017383;28;20026;-91
2022/01/06 09:39:32;;;;;;;0.95;0.95;;;;;;;10.15;70.53;98401.38;5017595;28;20040;-91
2022/01/06 09:41:58;;;;;;;0.05;0.05;;;;;;;10.18;70.50;98398.16;5018891;28;20145;-90
2022/01/06 09:44:25;;;;;;;0.47;0.47;;;;;;;10.21;69.78;98397.56;5017696;28;20033;-90
2022/01/06 09:46:51;;;;;;;0.00;0.00;;;;;;;10.20;69.40;98395.97;5017939;28;20022;-90
2022/01/06 09:49:17;;;;;;;3.75;1.42;;;;;;;10.20;69.65;98397.84;5017769;28;20039;-90
2022/01/06 09:51:44;;;;;;;0.77;0.77;;;;;;;10.23;69.82;98398.06;5017062;28;20021;-91
2022/01/06 09:54:10;;;;;;;0.10;0.10;;;;;;;10.06;69.87;98363.84;5016932;28;20110;-91
2022/01/06 09:56:36;;;;;;;1.17;1.17;;;;;;;10.32;70.81;98395.53;5016727;28;20524;-91
2022/01/06 09:59:02;;;;;;;0.55;0.55;;;;;;;10.30;70.21;98380.88;5016764;28;20057;-91
2022/01/06 10:01:27;;;;;;;0.45;0.45;;;;;;;10.38;70.16;98390.94;5017330;28;20043;-90
2022/01/06 10:03:53;;;;;;;0.47;0.47;;;;;;;10.43;70.36;98390.84;5020590;28;20120;-89
2022/01/06 10:06:24;;;;;;;0.10;0.10;;;;;;;10.53;70.17;98397.94;5021818;28;20026;-90
2022/01/06 10:08:59;;;;;;;1.15;0.52;;;;;;;10.56;70.34;98395.47;5028678;28;20032;-90
2022/01/06 10:11:27;;;;;;;0.75;0.75;;;;;;;10.60;69.98;98390.34;5030922;28;20032;-88
2022/01/06 10:14:04;;;;;;;0.70;0.70;;;;;;;10.57;69.67;98396.28;5030033;28;20060;-89
2022/01/06 10:16:31;;;;;;;0.17;0.17;;;;;;;10.52;70.10;98377.63;5027126;28;20038;-91
2022/01/06 10:18:58;;;;;;;1.35;0.52;;;;;;;10.63;70.37;98391.63;5018237;28;20412;-92
2022/01/06 10:21:24;;;;;;;0.47;0.47;;;;;;;10.50;69.36;98367.22;5017132;28;20152;-89
2022/01/06 10:24:01;;;;;;;0.30;0.30;;;;;;;10.59;69.11;98378.03;5017379;28;20025;-90
2022/01/06 10:26:27;;;;;;;1.38;1.27;;;;;;;10.63;68.48;98379.06;5015591;28;20049;-91
2022/01/06 10:28:52;;;;;;;0.47;0.47;;;;;;;10.56;69.84;98379.44;5016121;28;20032;-90
2022/01/06 10:31:26;;;;;;;0.30;0.30;;;;;;;10.43;70.82;98380.16;5017013;28;20065;-90
2022/01/06 10:33:52;;;;;;;0.15;0.15;;;;;;;10.45;70.94;98372.66;5017687;28;20022;-91
2022/01/06 10:36:17;;;;;;;0.00;0.00;;;;;;;10.57;70.89;98388.25;5016409;28;20021;-90
2022/01/06 10:38:52;;;;;;;0.20;0.20;;;;;;;10.60;71.47;98370.84;5016877;28;20032;-90
2022/01/06 10:41:18;;;;;;;0.63;0.63;;;;;;;10.63;70.59;98371.03;5016518;28;20025;-91
2022/01/06 10:43:58;;;;;;;0.00;0.00;;;;;;;10.73;71.09;98376.22;5016530;28;20056;-90
2022/01/06 10:46:27;;;;;;;0.10;0.10;;;;;;;10.76;70.45;98371.38;5016308;28;20037;-91
2022/01/06 10:48:56;;;;;;;;;;;;;;;10.85;71.17;98366.91;5016559;28;20037;-91
2022/01/06 10:51:49;;;;;;;0.52;0.52;;;;;;;10.88;70.68;98371.69;5016042;28;19909;-90
2022/01/06 10:54:17;;;;;;;1.60;0.68;;;;;;;10.92;70.96;98369.22;5015827;28;20029;-91
2022/01/06 10:56:43;;;;;;;0.35;0.35;;;;;;;10.88;70.89;98359.09;5015907;28;20052;-90
2022/01/06 10:59:08;;;;;;;3.35;1.17;;;;;;;10.98;70.52;98360.00;5015935;28;20124;-90
2022/01/06 11:01:48;;;;;;;0.10;0.10;;;;;;;10.92;70.81;98345.16;5018632;28;20377;-91
2022/01/06 11:04:14;;;;;;;0.45;0.45;;;;;;;10.99;71.00;98359.72;4985993;28;20057;-90
2022/01/06 11:06:40;;;;;;;0.45;0.45;;;;;;;11.00;71.21;98363.19;4986303;28;20022;-89
2022/01/06 11:09:06;;;;;;;1.02;1.02;;;;;;;10.92;71.44;98345.16;4986447;28;20030;-90
2022/01/06 11:12:26;;;;;;;0.68;0.68;;;;;;;10.90;71.27;98340.09;4988366;28;20104;-90
2022/01/06 11:14:20;;;;;;;0.30;0.30;;;;;;;10.99;71.83;98348.22;4993074;28;20042;-89
2022/01/06 11:16:46;;;;;;;0.05;0.05;;;;;;;10.79;71.16;98312.75;4993938;28;20045;-89
2022/01/06 11:19:12;;;;;;;0.85;0.85;;;;;;;10.78;72.25;98311.16;4989001;28;20117;-88
2022/01/06 11:21:41;;;;;;;0.55;0.55;;;;;;;10.93;72.18;98328.00;4985643;28;20042;-89
2022/01/06 11:24:23;;;;;;;1.73;1.65;;;;;;;10.99;71.87;98322.25;4985715;28;20023;-89
2022/01/06 11:27:10;;;;;;;0.00;0.00;;;;;;;11.05;71.88;98329.09;4986592;28;20033;-91
2022/01/06 11:29:37;;;;;;;0.73;0.73;;;;;;;11.02;71.78;98318.19;4986009;28;20058;-91
2022/01/06 11:32:05;;;;;;;0.88;0.88;;;;;;;11.12;72.12;98333.25;4985956;28;20038;-90
2022/01/06 11:34:37;;;;;;;0.00;0.00;;;;;;;11.17;71.68;98331.28;4985764;28;20037;-90
2022/01/06 11:37:11;;;;;;;0.05;0.05;;;;;;;11.18;71.10;98316.81;4985562;28;20034;-91
2022/01/06 11:39:37;;;;;;;1.58;1.48;;;;;;;11.21;71.44;98326.91;4984884;28;20505;-91
2022/01/06 11:42:15;;;;;;;0.00;0.00;;;;;;;11.24;71.29;98322.06;4985045;28;20030;-89